AZO955 UHPP-UHSS
Flight info
| Callsign | AZO955 |
|---|---|
| Flight time | 2h 6m |
| Altitude | 36000 |
| Route | SAMIK4L SAMIK T577 UB P176 NAMUL P175 ROMUK R810 BELNA DCT LEKPA LEKPA4V |
| Aircraft | A320/M-SDE3FGHIRWY/LB1 |
Departure
| Time | 2026-05-06 23:55 |
|---|---|
| Airport | Yelizovo Airport (UHPP) |
Arrival
| Time | 2026-05-07 02:01 |
|---|---|
| Airport | Yuzhno-Sakhalinsk International Airport (UHSS) |
| Time | Latitude | Longitude | Altitude | Speed | Heading |
|---|---|---|---|---|---|
| 2026-05-06 23:29 | 53.18249 | 158.43369 | 123 ft | 0 kts | 219° |
| 2026-05-06 23:40 | 53.18251 | 158.43372 | 120 ft | 4 kts | 218° |
| 2026-05-06 23:40 | 53.18270 | 158.43393 | 120 ft | 4 kts | 206° |
| 2026-05-06 23:40 | 53.18291 | 158.43406 | 122 ft | 3 kts | 189° |
| 2026-05-06 23:41 | 53.18311 | 158.43408 | 121 ft | 3 kts | 168° |
| 2026-05-06 23:41 | 53.18330 | 158.43398 | 120 ft | 3 kts | 147° |
| 2026-05-06 23:41 | 53.18346 | 158.43376 | 118 ft | 3 kts | 128° |
| 2026-05-06 23:41 | 53.18358 | 158.43344 | 123 ft | 3 kts | 112° |
| 2026-05-06 23:42 | 53.18366 | 158.43304 | 119 ft | 4 kts | 97° |
| 2026-05-06 23:42 | 53.18368 | 158.43255 | 120 ft | 5 kts | 95° |
| 2026-05-06 23:42 | 53.18371 | 158.43201 | 121 ft | 5 kts | 95° |
| 2026-05-06 23:42 | 53.18374 | 158.43146 | 120 ft | 5 kts | 94° |
| 2026-05-06 23:43 | 53.18375 | 158.43120 | 118 ft | 0 kts | 94° |
| 2026-05-06 23:45 | 53.18375 | 158.43126 | 118 ft | 2 kts | 94° |
| 2026-05-06 23:46 | 53.18372 | 158.43162 | 119 ft | 5 kts | 97° |
| 2026-05-06 23:46 | 53.18364 | 158.43252 | 119 ft | 3 kts | 98° |
| 2026-05-06 23:46 | 53.18362 | 158.43278 | 119 ft | 3 kts | 99° |
| 2026-05-06 23:46 | 53.18357 | 158.43321 | 123 ft | 4 kts | 101° |
| 2026-05-06 23:47 | 53.18350 | 158.43376 | 119 ft | 6 kts | 102° |
| 2026-05-06 23:47 | 53.18337 | 158.43448 | 121 ft | 7 kts | 122° |
| 2026-05-06 23:47 | 53.18295 | 158.43511 | 120 ft | 9 kts | 144° |
| 2026-05-06 23:47 | 53.18239 | 158.43585 | 123 ft | 11 kts | 128° |
| 2026-05-06 23:48 | 53.18253 | 158.43712 | 119 ft | 13 kts | 69° |
| 2026-05-06 23:48 | 53.18285 | 158.43846 | 120 ft | 13 kts | 67° |
| 2026-05-06 23:48 | 53.18299 | 158.43902 | 122 ft | 0 kts | 67° |
| 2026-05-06 23:49 | 53.18307 | 158.43933 | 123 ft | 9 kts | 67° |
| 2026-05-06 23:49 | 53.18313 | 158.44074 | 127 ft | 15 kts | 115° |
| 2026-05-06 23:49 | 53.18203 | 158.44186 | 121 ft | 23 kts | 158° |
| 2026-05-06 23:50 | 53.18044 | 158.44302 | 123 ft | 26 kts | 157° |
| 2026-05-06 23:50 | 53.17693 | 158.44544 | 125 ft | 28 kts | 158° |
| 2026-05-06 23:50 | 53.17509 | 158.44665 | 124 ft | 29 kts | 158° |
| 2026-05-06 23:51 | 53.17319 | 158.44793 | 124 ft | 30 kts | 158° |
| 2026-05-06 23:51 | 53.17120 | 158.44931 | 122 ft | 32 kts | 157° |
| 2026-05-06 23:51 | 53.16913 | 158.45084 | 126 ft | 33 kts | 156° |
| 2026-05-06 23:51 | 53.16701 | 158.45238 | 124 ft | 34 kts | 157° |
| 2026-05-06 23:52 | 53.16480 | 158.45386 | 122 ft | 35 kts | 159° |
| 2026-05-06 23:52 | 53.16250 | 158.45531 | 124 ft | 36 kts | 159° |
| 2026-05-06 23:52 | 53.16023 | 158.45692 | 125 ft | 35 kts | 155° |
| 2026-05-06 23:52 | 53.15795 | 158.45854 | 124 ft | 36 kts | 159° |
| 2026-05-06 23:53 | 53.15608 | 158.45992 | 122 ft | 25 kts | 154° |
| 2026-05-06 23:53 | 53.15555 | 158.45941 | 125 ft | 10 kts | 332° |
| 2026-05-06 23:53 | 53.15623 | 158.45960 | 123 ft | 8 kts | 4° |
| 2026-05-06 23:53 | 53.15676 | 158.45941 | 125 ft | 8 kts | 342° |
| 2026-05-06 23:54 | 53.15740 | 158.45906 | 124 ft | 13 kts | 340° |
| 2026-05-06 23:54 | 53.15861 | 158.45789 | 127 ft | 43 kts | 322° |
| 2026-05-06 23:54 | 53.16359 | 158.45444 | 123 ft | 112 kts | 338° |
| 2026-05-06 23:54 | 53.17254 | 158.44836 | 128 ft | 163 kts | 336° |
| 2026-05-06 23:55 | 53.18406 | 158.44009 | 378 ft | 192 kts | 336° |
| 2026-05-06 23:55 | 53.19731 | 158.43085 | 780 ft | 222 kts | 336° |
| 2026-05-06 23:55 | 53.21234 | 158.42040 | 1348 ft | 244 kts | 336° |
| 2026-05-06 23:55 | 53.22832 | 158.40928 | 2094 ft | 252 kts | 336° |
| 2026-05-06 23:56 | 53.24466 | 158.39794 | 2960 ft | 256 kts | 335° |
| 2026-05-06 23:56 | 53.26119 | 158.38646 | 3802 ft | 259 kts | 335° |
| 2026-05-06 23:56 | 53.27796 | 158.37485 | 4621 ft | 262 kts | 335° |
| 2026-05-06 23:56 | 53.29491 | 158.36314 | 5449 ft | 265 kts | 335° |
| 2026-05-06 23:57 | 53.31208 | 158.35128 | 6252 ft | 269 kts | 335° |
| 2026-05-06 23:57 | 53.32944 | 158.33926 | 7040 ft | 271 kts | 335° |
| 2026-05-06 23:57 | 53.34698 | 158.32709 | 7790 ft | 274 kts | 335° |
| 2026-05-06 23:57 | 53.36327 | 158.31080 | 8529 ft | 274 kts | 312° |
| 2026-05-06 23:58 | 53.37329 | 158.28407 | 9243 ft | 273 kts | 286° |
| 2026-05-06 23:58 | 53.37526 | 158.25269 | 9936 ft | 273 kts | 261° |
| 2026-05-06 23:58 | 53.36906 | 158.22280 | 10609 ft | 276 kts | 237° |
| 2026-05-06 23:58 | 53.35678 | 158.19706 | 10904 ft | 295 kts | 230° |
| 2026-05-06 23:59 | 53.34271 | 158.17040 | 11034 ft | 316 kts | 229° |
| 2026-05-06 23:59 | 53.32753 | 158.14226 | 11258 ft | 333 kts | 229° |
| 2026-05-06 23:59 | 53.31203 | 158.11372 | 11785 ft | 338 kts | 229° |
| 2026-05-06 23:59 | 53.29614 | 158.08443 | 12381 ft | 341 kts | 229° |
| 2026-05-07 00:00 | 53.28019 | 158.05490 | 12987 ft | 344 kts | 229° |
| 2026-05-07 00:00 | 53.26412 | 158.02505 | 13566 ft | 347 kts | 229° |
| 2026-05-07 00:00 | 53.24795 | 157.99491 | 14137 ft | 349 kts | 229° |
| 2026-05-07 00:00 | 53.23169 | 157.96458 | 14691 ft | 352 kts | 229° |
| 2026-05-07 00:01 | 53.21533 | 157.93409 | 15225 ft | 354 kts | 229° |
| 2026-05-07 00:01 | 53.19883 | 157.90337 | 15735 ft | 357 kts | 229° |
| 2026-05-07 00:01 | 53.18308 | 157.87407 | 16206 ft | 359 kts | 229° |
| 2026-05-07 00:01 | 53.16633 | 157.84292 | 16735 ft | 361 kts | 229° |
| 2026-05-07 00:02 | 53.14951 | 157.81167 | 17261 ft | 364 kts | 229° |
| 2026-05-07 00:02 | 53.13275 | 157.78062 | 17784 ft | 367 kts | 229° |
| 2026-05-07 00:02 | 53.11562 | 157.74898 | 18319 ft | 369 kts | 229° |
| 2026-05-07 00:02 | 53.09831 | 157.71715 | 18851 ft | 372 kts | 229° |
| 2026-05-07 00:03 | 53.08086 | 157.68511 | 19382 ft | 375 kts | 229° |
| 2026-05-07 00:03 | 53.06332 | 157.65285 | 19909 ft | 377 kts | 229° |
| 2026-05-07 00:03 | 53.04741 | 157.61814 | 20412 ft | 379 kts | 239° |
| 2026-05-07 00:03 | 53.03544 | 157.57909 | 20882 ft | 381 kts | 249° |
| 2026-05-07 00:04 | 53.02758 | 157.53688 | 21335 ft | 383 kts | 255° |
| 2026-05-07 00:04 | 53.02080 | 157.49396 | 21769 ft | 385 kts | 255° |
| 2026-05-07 00:04 | 53.01914 | 157.48354 | 21871 ft | 386 kts | 255° |
| 2026-05-07 00:04 | 53.01838 | 157.47877 | 21916 ft | 386 kts | 255° |
| 2026-05-07 00:05 | 53.01142 | 157.43549 | 22325 ft | 388 kts | 255° |
| 2026-05-07 00:05 | 53.00440 | 157.39219 | 22723 ft | 390 kts | 255° |
| 2026-05-07 00:05 | 52.99731 | 157.34864 | 23116 ft | 392 kts | 255° |
| 2026-05-07 00:05 | 52.99016 | 157.30483 | 23499 ft | 395 kts | 255° |
| 2026-05-07 00:06 | 52.98295 | 157.26059 | 23867 ft | 397 kts | 255° |
| 2026-05-07 00:06 | 52.97574 | 157.21637 | 24215 ft | 399 kts | 255° |
| 2026-05-07 00:06 | 52.97277 | 157.19822 | 24360 ft | 399 kts | 255° |
| 2026-05-07 00:06 | 52.96844 | 157.17182 | 24561 ft | 401 kts | 255° |
| 2026-05-07 00:07 | 52.96358 | 157.14220 | 24792 ft | 402 kts | 255° |
| 2026-05-07 00:07 | 52.95372 | 157.08224 | 25231 ft | 404 kts | 255° |
| 2026-05-07 00:07 | 52.94629 | 157.03712 | 25563 ft | 406 kts | 255° |
| 2026-05-07 00:07 | 52.93882 | 156.99185 | 25876 ft | 408 kts | 255° |
| 2026-05-07 00:08 | 52.93130 | 156.94638 | 26196 ft | 410 kts | 255° |
| 2026-05-07 00:08 | 52.93043 | 156.94116 | 26229 ft | 410 kts | 255° |
| 2026-05-07 00:09 | 52.92622 | 156.91575 | 26402 ft | 411 kts | 255° |
| 2026-05-07 00:09 | 52.91871 | 156.87065 | 26714 ft | 413 kts | 254° |
| 2026-05-07 00:09 | 52.91104 | 156.82474 | 27023 ft | 414 kts | 254° |
| 2026-05-07 00:09 | 52.90854 | 156.80983 | 27153 ft | 414 kts | 254° |
| 2026-05-07 00:10 | 52.90335 | 156.77883 | 27441 ft | 413 kts | 254° |
| 2026-05-07 00:10 | 52.89321 | 156.71831 | 28000 ft | 411 kts | 254° |
| 2026-05-07 00:10 | 52.88552 | 156.67284 | 28414 ft | 410 kts | 254° |
| 2026-05-07 00:10 | 52.87781 | 156.62739 | 28815 ft | 409 kts | 254° |
| 2026-05-07 00:11 | 52.87016 | 156.58221 | 29199 ft | 408 kts | 254° |
| 2026-05-07 00:11 | 52.86252 | 156.53711 | 29610 ft | 407 kts | 254° |
| 2026-05-07 00:11 | 52.85490 | 156.49207 | 30002 ft | 406 kts | 254° |
| 2026-05-07 00:11 | 52.84726 | 156.44725 | 30393 ft | 405 kts | 254° |
| 2026-05-07 00:12 | 52.83961 | 156.40251 | 30771 ft | 404 kts | 254° |
| 2026-05-07 00:12 | 52.83193 | 156.35788 | 31148 ft | 403 kts | 254° |
| 2026-05-07 00:12 | 52.82426 | 156.31340 | 31530 ft | 402 kts | 254° |
| 2026-05-07 00:12 | 52.81688 | 156.26890 | 31902 ft | 401 kts | 257° |
| 2026-05-07 00:13 | 52.81356 | 156.23835 | 32153 ft | 400 kts | 261° |
| 2026-05-07 00:13 | 52.80794 | 156.17826 | 32636 ft | 399 kts | 261° |
| 2026-05-07 00:13 | 52.80367 | 156.13297 | 32977 ft | 398 kts | 261° |
| 2026-05-07 00:13 | 52.79939 | 156.08787 | 33337 ft | 397 kts | 261° |
| 2026-05-07 00:14 | 52.79512 | 156.04279 | 33663 ft | 396 kts | 261° |
| 2026-05-07 00:14 | 52.79082 | 155.99789 | 33977 ft | 396 kts | 260° |
| 2026-05-07 00:14 | 52.78646 | 155.95301 | 34271 ft | 395 kts | 260° |
| 2026-05-07 00:14 | 52.78207 | 155.90823 | 34556 ft | 395 kts | 260° |
| 2026-05-07 00:15 | 52.77769 | 155.86349 | 34824 ft | 394 kts | 260° |
| 2026-05-07 00:15 | 52.77331 | 155.81885 | 35096 ft | 394 kts | 260° |
| 2026-05-07 00:15 | 52.76892 | 155.77424 | 35345 ft | 393 kts | 260° |
| 2026-05-07 00:15 | 52.76454 | 155.72979 | 35591 ft | 393 kts | 260° |
| 2026-05-07 00:16 | 52.76015 | 155.68525 | 35787 ft | 393 kts | 260° |
| 2026-05-07 00:16 | 52.75568 | 155.64055 | 35837 ft | 397 kts | 260° |
| 2026-05-07 00:16 | 52.74649 | 155.54949 | 35836 ft | 407 kts | 260° |
| 2026-05-07 00:17 | 52.73703 | 155.45715 | 35839 ft | 409 kts | 260° |
| 2026-05-07 00:17 | 52.72747 | 155.36456 | 35836 ft | 409 kts | 260° |
| 2026-05-07 00:18 | 52.71792 | 155.27185 | 35839 ft | 409 kts | 260° |
| 2026-05-07 00:18 | 52.70834 | 155.17934 | 35840 ft | 409 kts | 259° |
| 2026-05-07 00:19 | 52.70021 | 155.10250 | 35843 ft | 410 kts | 259° |
| 2026-05-07 00:19 | 52.68875 | 154.99429 | 35842 ft | 410 kts | 259° |
| 2026-05-07 00:20 | 52.67887 | 154.90185 | 35849 ft | 410 kts | 259° |
| 2026-05-07 00:20 | 52.66897 | 154.80937 | 35846 ft | 410 kts | 259° |
| 2026-05-07 00:21 | 52.65896 | 154.71700 | 35845 ft | 410 kts | 259° |
| 2026-05-07 00:21 | 52.64884 | 154.62461 | 35850 ft | 410 kts | 259° |
| 2026-05-07 00:22 | 52.64550 | 154.59405 | 37186 ft | 410 kts | 260° |
| 2026-05-07 00:22 | 52.64003 | 154.54769 | 37208 ft | 414 kts | 256° |
| 2026-05-07 00:22 | 52.62716 | 154.49017 | 37208 ft | 420 kts | 245° |
| 2026-05-07 00:23 | 52.60146 | 154.40364 | 36596 ft | 420 kts | 246° |
| 2026-05-07 00:23 | 52.58861 | 154.36047 | 36002 ft | 420 kts | 246° |
| 2026-05-07 00:23 | 52.57583 | 154.31754 | 35759 ft | 417 kts | 246° |
| 2026-05-07 00:24 | 52.55037 | 154.23182 | 35725 ft | 419 kts | 246° |
| 2026-05-07 00:24 | 52.52471 | 154.14592 | 35730 ft | 419 kts | 246° |
| 2026-05-07 00:25 | 52.49900 | 154.06027 | 35731 ft | 418 kts | 246° |
| 2026-05-07 00:25 | 52.47343 | 153.97532 | 35730 ft | 418 kts | 246° |
| 2026-05-07 00:26 | 52.44759 | 153.88990 | 35735 ft | 418 kts | 246° |
| 2026-05-07 00:26 | 52.42170 | 153.80464 | 35740 ft | 418 kts | 246° |
| 2026-05-07 00:27 | 52.39568 | 153.71900 | 35743 ft | 417 kts | 246° |
| 2026-05-07 00:27 | 52.36974 | 153.63393 | 35746 ft | 417 kts | 246° |
| 2026-05-07 00:28 | 52.34392 | 153.54975 | 35750 ft | 417 kts | 245° |
| 2026-05-07 00:28 | 52.31785 | 153.46513 | 35754 ft | 417 kts | 246° |
| 2026-05-07 00:29 | 52.29185 | 153.38063 | 35757 ft | 416 kts | 246° |
| 2026-05-07 00:30 | 52.23959 | 153.21225 | 35762 ft | 415 kts | 245° |
| 2026-05-07 00:30 | 52.21335 | 153.12834 | 35763 ft | 415 kts | 245° |
| 2026-05-07 00:31 | 52.18715 | 153.04462 | 35760 ft | 414 kts | 245° |
| 2026-05-07 00:31 | 52.16098 | 152.96115 | 35761 ft | 414 kts | 245° |
| 2026-05-07 00:32 | 52.13468 | 152.87779 | 35765 ft | 413 kts | 245° |
| 2026-05-07 00:32 | 52.10842 | 152.79465 | 35770 ft | 413 kts | 245° |
| 2026-05-07 00:33 | 52.08210 | 152.71166 | 35769 ft | 412 kts | 245° |
| 2026-05-07 00:33 | 52.05575 | 152.62891 | 35768 ft | 412 kts | 245° |
| 2026-05-07 00:34 | 52.02937 | 152.54638 | 35773 ft | 412 kts | 245° |
| 2026-05-07 00:34 | 52.00296 | 152.46398 | 35769 ft | 411 kts | 245° |
| 2026-05-07 00:35 | 51.97647 | 152.38177 | 35776 ft | 411 kts | 245° |
| 2026-05-07 00:35 | 51.95003 | 152.29978 | 35776 ft | 410 kts | 245° |
| 2026-05-07 00:36 | 51.92360 | 152.21793 | 35779 ft | 410 kts | 245° |
| 2026-05-07 00:36 | 51.89701 | 152.13630 | 35781 ft | 409 kts | 245° |
| 2026-05-07 00:37 | 51.87045 | 152.05477 | 35782 ft | 409 kts | 245° |
| 2026-05-07 00:37 | 51.84390 | 151.97342 | 35784 ft | 409 kts | 245° |
| 2026-05-07 00:38 | 51.81730 | 151.89234 | 35783 ft | 408 kts | 245° |
| 2026-05-07 00:38 | 51.79072 | 151.81133 | 35780 ft | 408 kts | 245° |
| 2026-05-07 00:39 | 51.76404 | 151.73065 | 35784 ft | 407 kts | 244° |
| 2026-05-07 00:39 | 51.73729 | 151.65002 | 35782 ft | 407 kts | 245° |
| 2026-05-07 00:40 | 51.71058 | 151.56967 | 35784 ft | 406 kts | 244° |
| 2026-05-07 00:40 | 51.68385 | 151.48961 | 35785 ft | 406 kts | 244° |
| 2026-05-07 00:41 | 51.65710 | 151.40962 | 35787 ft | 405 kts | 244° |
| 2026-05-07 00:41 | 51.63040 | 151.32989 | 35788 ft | 404 kts | 244° |
| 2026-05-07 00:42 | 51.60360 | 151.25027 | 35789 ft | 404 kts | 244° |
| 2026-05-07 00:42 | 51.57675 | 151.17088 | 35790 ft | 404 kts | 244° |
| 2026-05-07 00:43 | 51.54988 | 151.09169 | 35790 ft | 403 kts | 244° |
| 2026-05-07 00:43 | 51.52302 | 151.01261 | 35788 ft | 403 kts | 244° |
| 2026-05-07 00:44 | 51.49614 | 150.93359 | 35790 ft | 403 kts | 244° |
| 2026-05-07 00:44 | 51.46924 | 150.85483 | 35787 ft | 402 kts | 244° |
| 2026-05-07 00:45 | 51.44217 | 150.77627 | 35792 ft | 402 kts | 244° |
| 2026-05-07 00:45 | 51.41516 | 150.69794 | 35794 ft | 401 kts | 244° |
| 2026-05-07 00:46 | 51.38819 | 150.61969 | 35793 ft | 401 kts | 244° |
| 2026-05-07 00:46 | 51.36121 | 150.54163 | 35790 ft | 400 kts | 244° |
| 2026-05-07 00:47 | 51.33440 | 150.46421 | 35790 ft | 400 kts | 244° |
| 2026-05-07 00:47 | 51.30737 | 150.38655 | 35791 ft | 399 kts | 244° |
| 2026-05-07 00:48 | 51.28027 | 150.30914 | 35792 ft | 399 kts | 244° |
| 2026-05-07 00:48 | 51.25316 | 150.23192 | 35789 ft | 398 kts | 244° |
| 2026-05-07 00:49 | 51.22608 | 150.15475 | 35791 ft | 398 kts | 244° |
| 2026-05-07 00:49 | 51.19891 | 150.07788 | 35794 ft | 398 kts | 244° |
| 2026-05-07 00:50 | 51.17123 | 150.00160 | 35790 ft | 399 kts | 239° |
| 2026-05-07 00:50 | 51.13695 | 149.93157 | 35788 ft | 401 kts | 236° |
| 2026-05-07 00:51 | 51.10229 | 149.86214 | 35789 ft | 400 kts | 236° |
| 2026-05-07 00:51 | 51.06765 | 149.79290 | 35790 ft | 400 kts | 236° |
| 2026-05-07 00:52 | 51.03296 | 149.72378 | 35796 ft | 399 kts | 236° |
| 2026-05-07 00:52 | 50.99832 | 149.65494 | 35794 ft | 399 kts | 236° |
| 2026-05-07 00:53 | 50.96369 | 149.58622 | 35796 ft | 398 kts | 236° |
| 2026-05-07 00:53 | 50.92908 | 149.51767 | 35797 ft | 398 kts | 236° |
| 2026-05-07 00:54 | 50.89442 | 149.44941 | 35801 ft | 397 kts | 236° |
| 2026-05-07 00:54 | 50.85976 | 149.38134 | 35794 ft | 397 kts | 236° |
| 2026-05-07 00:55 | 50.82513 | 149.31355 | 35796 ft | 396 kts | 236° |
| 2026-05-07 00:55 | 50.79047 | 149.24578 | 35795 ft | 396 kts | 236° |
| 2026-05-07 00:56 | 50.75583 | 149.17831 | 35796 ft | 395 kts | 236° |
| 2026-05-07 00:56 | 50.72121 | 149.11100 | 35800 ft | 395 kts | 236° |
| 2026-05-07 00:57 | 50.68660 | 149.04385 | 35801 ft | 394 kts | 236° |
| 2026-05-07 00:57 | 50.65202 | 148.97687 | 35798 ft | 394 kts | 236° |
| 2026-05-07 00:58 | 50.61740 | 148.91002 | 35800 ft | 393 kts | 236° |
| 2026-05-07 00:58 | 50.58277 | 148.84342 | 35800 ft | 393 kts | 236° |
| 2026-05-07 00:59 | 50.53087 | 148.74383 | 35798 ft | 392 kts | 236° |
| 2026-05-07 01:00 | 50.49629 | 148.67764 | 35798 ft | 391 kts | 236° |
| 2026-05-07 01:00 | 50.46173 | 148.61165 | 35796 ft | 391 kts | 236° |
| 2026-05-07 01:01 | 50.42720 | 148.54594 | 35798 ft | 390 kts | 236° |
| 2026-05-07 01:01 | 50.39268 | 148.48050 | 35806 ft | 389 kts | 236° |
| 2026-05-07 01:02 | 50.35818 | 148.41526 | 35802 ft | 388 kts | 236° |
| 2026-05-07 01:02 | 50.32383 | 148.35016 | 35805 ft | 388 kts | 236° |
| 2026-05-07 01:03 | 50.28943 | 148.28521 | 35806 ft | 387 kts | 236° |
| 2026-05-07 01:03 | 50.25508 | 148.22054 | 35803 ft | 386 kts | 236° |
| 2026-05-07 01:04 | 50.22062 | 148.15626 | 35803 ft | 386 kts | 236° |
| 2026-05-07 01:04 | 50.19207 | 148.10295 | 35805 ft | 385 kts | 236° |
| 2026-05-07 01:05 | 50.15782 | 148.03887 | 35802 ft | 384 kts | 236° |
| 2026-05-07 01:05 | 50.12358 | 147.97505 | 35804 ft | 383 kts | 236° |
| 2026-05-07 01:06 | 50.08939 | 147.91146 | 35809 ft | 383 kts | 236° |
| 2026-05-07 01:06 | 50.05516 | 147.84810 | 35805 ft | 382 kts | 236° |
| 2026-05-07 01:07 | 50.02094 | 147.78490 | 35810 ft | 381 kts | 236° |
| 2026-05-07 01:07 | 49.98677 | 147.72193 | 35806 ft | 381 kts | 236° |
| 2026-05-07 01:08 | 49.95259 | 147.65913 | 35806 ft | 380 kts | 236° |
| 2026-05-07 01:08 | 49.91844 | 147.59641 | 35809 ft | 380 kts | 236° |
| 2026-05-07 01:09 | 49.88434 | 147.53392 | 35807 ft | 379 kts | 236° |
| 2026-05-07 01:09 | 49.85019 | 147.47159 | 35804 ft | 379 kts | 236° |
| 2026-05-07 01:10 | 49.81604 | 147.40941 | 35803 ft | 379 kts | 236° |
| 2026-05-07 01:10 | 49.78191 | 147.34740 | 35803 ft | 378 kts | 236° |
| 2026-05-07 01:11 | 49.74781 | 147.28553 | 35803 ft | 378 kts | 236° |
| 2026-05-07 01:11 | 49.71372 | 147.22383 | 35803 ft | 378 kts | 236° |
| 2026-05-07 01:12 | 49.67952 | 147.16221 | 35802 ft | 377 kts | 236° |
| 2026-05-07 01:12 | 49.64537 | 147.10088 | 35803 ft | 377 kts | 236° |
| 2026-05-07 01:13 | 49.61121 | 147.03949 | 35800 ft | 377 kts | 236° |
| 2026-05-07 01:13 | 49.57707 | 146.97824 | 35796 ft | 376 kts | 236° |
| 2026-05-07 01:14 | 49.54293 | 146.91719 | 35800 ft | 376 kts | 236° |
| 2026-05-07 01:14 | 49.50880 | 146.85629 | 35803 ft | 375 kts | 236° |
| 2026-05-07 01:15 | 49.47489 | 146.79592 | 35802 ft | 375 kts | 236° |
| 2026-05-07 01:15 | 49.44074 | 146.73531 | 35801 ft | 375 kts | 236° |
| 2026-05-07 01:16 | 49.40629 | 146.67438 | 35791 ft | 375 kts | 236° |
| 2026-05-07 01:16 | 49.37234 | 146.61443 | 35808 ft | 375 kts | 236° |
| 2026-05-07 01:17 | 49.33790 | 146.55383 | 35806 ft | 374 kts | 236° |
| 2026-05-07 01:17 | 49.30389 | 146.49410 | 35809 ft | 374 kts | 236° |
| 2026-05-07 01:18 | 49.26971 | 146.43414 | 35809 ft | 374 kts | 236° |
| 2026-05-07 01:18 | 49.23551 | 146.37421 | 35810 ft | 373 kts | 236° |
| 2026-05-07 01:19 | 49.20130 | 146.31448 | 35807 ft | 373 kts | 236° |
| 2026-05-07 01:19 | 49.16711 | 146.25483 | 35809 ft | 373 kts | 236° |
| 2026-05-07 01:20 | 49.13286 | 146.19526 | 35812 ft | 373 kts | 235° |
| 2026-05-07 01:20 | 49.09853 | 146.13593 | 35810 ft | 373 kts | 235° |
| 2026-05-07 01:21 | 49.06423 | 146.07663 | 35809 ft | 372 kts | 236° |
| 2026-05-07 01:21 | 49.03001 | 146.01735 | 35807 ft | 372 kts | 236° |
| 2026-05-07 01:22 | 48.99581 | 145.95823 | 35807 ft | 372 kts | 236° |
| 2026-05-07 01:22 | 48.96154 | 145.89931 | 35807 ft | 372 kts | 235° |
| 2026-05-07 01:23 | 48.92721 | 145.84062 | 35809 ft | 371 kts | 235° |
| 2026-05-07 01:23 | 48.89286 | 145.78196 | 35809 ft | 371 kts | 236° |
| 2026-05-07 01:24 | 48.85860 | 145.72331 | 35809 ft | 371 kts | 236° |
| 2026-05-07 01:24 | 48.82433 | 145.66490 | 35809 ft | 371 kts | 235° |
| 2026-05-07 01:25 | 48.79002 | 145.60664 | 35810 ft | 370 kts | 235° |
| 2026-05-07 01:25 | 48.75565 | 145.54842 | 35812 ft | 370 kts | 235° |
| 2026-05-07 01:26 | 48.72141 | 145.49039 | 35812 ft | 370 kts | 236° |
| 2026-05-07 01:26 | 48.68717 | 145.43237 | 35817 ft | 369 kts | 236° |
| 2026-05-07 01:27 | 48.65283 | 145.37453 | 35811 ft | 369 kts | 235° |
| 2026-05-07 01:27 | 48.61847 | 145.31684 | 35811 ft | 369 kts | 236° |
| 2026-05-07 01:28 | 48.58414 | 145.25926 | 35813 ft | 368 kts | 236° |
| 2026-05-07 01:28 | 48.54979 | 145.20185 | 35814 ft | 368 kts | 235° |
| 2026-05-07 01:29 | 48.51547 | 145.14464 | 35814 ft | 368 kts | 236° |
| 2026-05-07 01:29 | 48.48116 | 145.08744 | 35811 ft | 367 kts | 236° |
| 2026-05-07 01:30 | 48.44690 | 145.03039 | 35808 ft | 367 kts | 236° |
| 2026-05-07 01:30 | 48.41282 | 144.97381 | 35807 ft | 367 kts | 236° |
| 2026-05-07 01:31 | 48.37831 | 144.91662 | 35817 ft | 367 kts | 236° |
| 2026-05-07 01:31 | 48.34417 | 144.86031 | 35820 ft | 366 kts | 236° |
| 2026-05-07 01:32 | 48.30983 | 144.80378 | 35814 ft | 366 kts | 236° |
| 2026-05-07 01:32 | 48.27561 | 144.74735 | 35810 ft | 365 kts | 236° |
| 2026-05-07 01:33 | 48.24133 | 144.69099 | 35807 ft | 365 kts | 236° |
| 2026-05-07 01:33 | 48.20700 | 144.63472 | 35808 ft | 365 kts | 235° |
| 2026-05-07 01:34 | 48.17267 | 144.57863 | 35814 ft | 365 kts | 235° |
| 2026-05-07 01:34 | 48.13822 | 144.52252 | 35816 ft | 365 kts | 235° |
| 2026-05-07 01:35 | 48.10381 | 144.46656 | 35814 ft | 365 kts | 235° |
| 2026-05-07 01:35 | 48.06945 | 144.41080 | 35815 ft | 365 kts | 236° |
| 2026-05-07 01:36 | 48.03512 | 144.35497 | 35818 ft | 364 kts | 236° |
| 2026-05-07 01:36 | 48.00077 | 144.29933 | 35813 ft | 364 kts | 235° |
| 2026-05-07 01:37 | 47.96633 | 144.24387 | 35813 ft | 364 kts | 235° |
| 2026-05-07 01:37 | 47.93191 | 144.18862 | 35812 ft | 364 kts | 235° |
| 2026-05-07 01:38 | 47.89753 | 144.13330 | 35811 ft | 363 kts | 235° |
| 2026-05-07 01:38 | 47.86321 | 144.07816 | 35808 ft | 363 kts | 235° |
| 2026-05-07 01:39 | 47.82885 | 144.02321 | 35813 ft | 362 kts | 235° |
| 2026-05-07 01:39 | 47.79452 | 143.96847 | 35804 ft | 359 kts | 235° |
| 2026-05-07 01:40 | 47.76100 | 143.91524 | 35790 ft | 350 kts | 236° |
| 2026-05-07 01:40 | 47.72789 | 143.86258 | 35787 ft | 348 kts | 236° |
| 2026-05-07 01:41 | 47.69960 | 143.80577 | 35213 ft | 342 kts | 246° |
| 2026-05-07 01:41 | 47.68783 | 143.77434 | 34072 ft | 353 kts | 248° |
| 2026-05-07 01:41 | 47.67597 | 143.74226 | 33126 ft | 355 kts | 247° |
| 2026-05-07 01:41 | 47.66411 | 143.71017 | 32141 ft | 356 kts | 246° |
| 2026-05-07 01:42 | 47.65212 | 143.67787 | 31137 ft | 359 kts | 246° |
| 2026-05-07 01:42 | 47.63993 | 143.64519 | 30131 ft | 363 kts | 245° |
| 2026-05-07 01:42 | 47.62767 | 143.61256 | 29184 ft | 363 kts | 244° |
| 2026-05-07 01:42 | 47.61533 | 143.57985 | 28221 ft | 363 kts | 244° |
| 2026-05-07 01:43 | 47.60307 | 143.54733 | 27405 ft | 361 kts | 244° |
| 2026-05-07 01:43 | 47.59089 | 143.51511 | 26680 ft | 357 kts | 244° |
| 2026-05-07 01:43 | 47.57876 | 143.48310 | 25982 ft | 354 kts | 243° |
| 2026-05-07 01:43 | 47.56677 | 143.45147 | 25296 ft | 351 kts | 243° |
| 2026-05-07 01:44 | 47.55488 | 143.42012 | 24632 ft | 348 kts | 243° |
| 2026-05-07 01:44 | 47.54307 | 143.38898 | 23972 ft | 345 kts | 243° |
| 2026-05-07 01:44 | 47.53135 | 143.35814 | 23331 ft | 343 kts | 243° |
| 2026-05-07 01:44 | 47.51970 | 143.32753 | 22579 ft | 340 kts | 243° |
| 2026-05-07 01:45 | 47.50814 | 143.29713 | 21838 ft | 338 kts | 243° |
| 2026-05-07 01:45 | 47.49664 | 143.26690 | 21113 ft | 337 kts | 243° |
| 2026-05-07 01:45 | 47.48511 | 143.23671 | 20417 ft | 336 kts | 242° |
| 2026-05-07 01:45 | 47.47370 | 143.20684 | 19880 ft | 332 kts | 242° |
| 2026-05-07 01:46 | 47.46257 | 143.17723 | 19377 ft | 328 kts | 245° |
| 2026-05-07 01:46 | 47.45517 | 143.14558 | 18879 ft | 325 kts | 257° |
| 2026-05-07 01:46 | 47.45327 | 143.11222 | 18334 ft | 329 kts | 269° |
| 2026-05-07 01:46 | 47.45516 | 143.08987 | 17918 ft | 334 kts | 276° |
| 2026-05-07 01:47 | 47.46013 | 143.05625 | 17277 ft | 335 kts | 277° |
| 2026-05-07 01:47 | 47.46507 | 143.02263 | 16664 ft | 334 kts | 277° |
| 2026-05-07 01:47 | 47.46995 | 142.98908 | 16046 ft | 334 kts | 278° |
| 2026-05-07 01:47 | 47.47479 | 142.95553 | 15435 ft | 333 kts | 278° |
| 2026-05-07 01:48 | 47.47957 | 142.92202 | 14821 ft | 333 kts | 279° |
| 2026-05-07 01:48 | 47.48433 | 142.88850 | 14201 ft | 333 kts | 279° |
| 2026-05-07 01:48 | 47.48911 | 142.85503 | 13593 ft | 333 kts | 280° |
| 2026-05-07 01:48 | 47.49393 | 142.82154 | 12930 ft | 333 kts | 281° |
| 2026-05-07 01:49 | 47.49855 | 142.78800 | 12309 ft | 331 kts | 277° |
| 2026-05-07 01:49 | 47.49764 | 142.75434 | 11735 ft | 329 kts | 257° |
| 2026-05-07 01:49 | 47.48827 | 142.72354 | 11141 ft | 332 kts | 236° |
| 2026-05-07 01:49 | 47.47430 | 142.70273 | 10611 ft | 336 kts | 218° |
| 2026-05-07 01:50 | 47.45322 | 142.68864 | 10266 ft | 336 kts | 195° |
| 2026-05-07 01:50 | 47.43063 | 142.68706 | 10130 ft | 318 kts | 175° |
| 2026-05-07 01:51 | 47.40966 | 142.69284 | 10033 ft | 295 kts | 172° |
| 2026-05-07 01:51 | 47.39021 | 142.69850 | 9916 ft | 276 kts | 172° |
| 2026-05-07 01:51 | 47.37197 | 142.70381 | 9793 ft | 258 kts | 173° |
| 2026-05-07 01:51 | 47.35461 | 142.70883 | 9399 ft | 253 kts | 173° |
| 2026-05-07 01:52 | 47.33743 | 142.71375 | 8945 ft | 250 kts | 173° |
| 2026-05-07 01:52 | 47.32047 | 142.71860 | 8523 ft | 246 kts | 172° |
| 2026-05-07 01:52 | 47.30383 | 142.72337 | 8119 ft | 242 kts | 173° |
| 2026-05-07 01:52 | 47.28737 | 142.72642 | 7724 ft | 236 kts | 184° |
| 2026-05-07 01:53 | 47.27133 | 142.72535 | 7324 ft | 234 kts | 182° |
| 2026-05-07 01:53 | 47.25506 | 142.72598 | 6908 ft | 233 kts | 182° |
| 2026-05-07 01:53 | 47.23892 | 142.72606 | 6589 ft | 230 kts | 184° |
| 2026-05-07 01:53 | 47.22279 | 142.72572 | 6304 ft | 232 kts | 184° |
| 2026-05-07 01:54 | 47.20680 | 142.72532 | 5913 ft | 227 kts | 184° |
| 2026-05-07 01:54 | 47.19128 | 142.72493 | 5530 ft | 220 kts | 184° |
| 2026-05-07 01:54 | 47.17618 | 142.72456 | 5122 ft | 215 kts | 184° |
| 2026-05-07 01:54 | 47.16127 | 142.72419 | 4656 ft | 213 kts | 184° |
| 2026-05-07 01:55 | 47.14653 | 142.72383 | 4226 ft | 210 kts | 184° |
| 2026-05-07 01:55 | 47.13200 | 142.72348 | 3823 ft | 207 kts | 184° |
| 2026-05-07 01:55 | 47.11769 | 142.72312 | 3426 ft | 205 kts | 184° |
| 2026-05-07 01:55 | 47.10356 | 142.72278 | 3045 ft | 201 kts | 184° |
| 2026-05-07 01:56 | 47.08964 | 142.72244 | 3032 ft | 200 kts | 184° |
| 2026-05-07 01:56 | 47.07574 | 142.72209 | 3038 ft | 201 kts | 184° |
| 2026-05-07 01:56 | 47.06232 | 142.72178 | 3073 ft | 181 kts | 184° |
| 2026-05-07 01:56 | 47.05047 | 142.72150 | 2976 ft | 163 kts | 185° |
| 2026-05-07 01:57 | 47.03962 | 142.72124 | 2846 ft | 152 kts | 185° |
| 2026-05-07 01:57 | 47.02918 | 142.72097 | 2644 ft | 148 kts | 185° |
| 2026-05-07 01:57 | 47.02030 | 142.72074 | 2480 ft | 147 kts | 185° |
| 2026-05-07 01:57 | 47.01407 | 142.72058 | 2360 ft | 145 kts | 185° |
| 2026-05-07 01:58 | 47.00873 | 142.72046 | 2268 ft | 145 kts | 185° |
| 2026-05-07 01:58 | 46.99869 | 142.72021 | 2063 ft | 145 kts | 185° |
| 2026-05-07 01:58 | 46.98863 | 142.71996 | 1861 ft | 144 kts | 184° |
| 2026-05-07 01:58 | 46.97860 | 142.71971 | 1669 ft | 144 kts | 184° |
| 2026-05-07 01:59 | 46.96861 | 142.71947 | 1467 ft | 143 kts | 184° |
| 2026-05-07 01:59 | 46.95864 | 142.71922 | 1263 ft | 143 kts | 184° |
| 2026-05-07 01:59 | 46.94867 | 142.71898 | 1063 ft | 144 kts | 184° |
| 2026-05-07 01:59 | 46.93857 | 142.71873 | 855 ft | 144 kts | 182° |
| 2026-05-07 02:00 | 46.92866 | 142.71847 | 655 ft | 142 kts | 182° |
| 2026-05-07 02:00 | 46.92093 | 142.71818 | 483 ft | 143 kts | 181° |
| 2026-05-07 02:00 | 46.91421 | 142.71794 | 333 ft | 146 kts | 182° |
| 2026-05-07 02:01 | 46.90402 | 142.71773 | 136 ft | 147 kts | 181° |
| 2026-05-07 02:01 | 46.89433 | 142.71757 | 56 ft | 125 kts | 180° |
| 2026-05-07 02:01 | 46.88792 | 142.71733 | 51 ft | 50 kts | 182° |
| 2026-05-07 02:01 | 46.88686 | 142.71728 | 52 ft | 5 kts | 181° |
| 2026-05-07 02:02 | 46.88676 | 142.71740 | 52 ft | 2 kts | 97° |
| 2026-05-07 02:02 | 46.88691 | 142.71799 | 49 ft | 11 kts | 68° |
| 2026-05-07 02:02 | 46.88701 | 142.71887 | 50 ft | 0 kts | 91° |
| 2026-05-07 02:02 | 46.88700 | 142.71899 | 50 ft | 3 kts | 94° |
| 2026-05-07 02:03 | 46.88699 | 142.71946 | 49 ft | 6 kts | 92° |
| 2026-05-07 02:03 | 46.88694 | 142.72024 | 49 ft | 9 kts | 100° |
| 2026-05-07 02:03 | 46.88664 | 142.72092 | 49 ft | 6 kts | 139° |
| 2026-05-07 02:03 | 46.88650 | 142.72115 | 49 ft | 2 kts | 134° |
| 2026-05-07 02:04 | 46.88640 | 142.72137 | 49 ft | 3 kts | 107° |
| 2026-05-07 02:04 | 46.88644 | 142.72155 | 49 ft | 2 kts | 30° |
| 2026-05-07 02:04 | 46.88685 | 142.72150 | 46 ft | 10 kts | 348° |
| 2026-05-07 02:04 | 46.88772 | 142.72099 | 47 ft | 16 kts | 347° |
| 2026-05-07 02:05 | 46.88854 | 142.72105 | 49 ft | 9 kts | 47° |
| 2026-05-07 02:05 | 46.88861 | 142.72192 | 49 ft | 9 kts | 90° |
| 2026-05-07 02:05 | 46.88860 | 142.72215 | 49 ft | 0 kts | 90° |